Time;durP1;ratioP1;P1;durP2;ratioP2;P2;SDS_P1;SDS_P2;PMS_P1;PMS_P2;Temp;Humidity;BMP_temperature;BMP_pressure;BME280_temperature;BME280_humidity;BME280_pressure;Samples;Min_cycle;Max_cycle;Signal;HPM_P1;HPM_P2
2023/05/22 00:01:05;;;;;;;12.40;4.30;;;;;;;17.26;56.85;101173.28;4946092;29;20496;-67
2023/05/22 00:03:32;;;;;;;7.85;3.85;;;;;;;17.16;57.31;101166.50;4946565;28;20496;-66
2023/05/22 00:05:59;;;;;;;6.65;3.60;;;;;;;17.21;56.95;101170.31;4945207;29;20043;-66
2023/05/22 00:08:26;;;;;;;6.13;4.05;;;;;;;17.13;57.38;101163.16;4947174;29;20127;-67
2023/05/22 00:10:55;;;;;;;7.07;3.67;;;;;;;17.29;56.91;101174.75;4945710;29;20121;-67
2023/05/22 00:13:21;;;;;;;7.30;3.97;;;;;;;17.12;56.98;101166.03;4945022;28;20093;-67
2023/05/22 00:15:48;;;;;;;8.98;3.92;;;;;;;17.08;57.22;101162.88;4944868;28;20055;-67
2023/05/22 00:18:15;;;;;;;12.32;3.50;;;;;;;17.22;56.80;101165.72;4945518;28;20048;-66
2023/05/22 00:20:41;;;;;;;10.55;3.70;;;;;;;17.10;56.81;101160.81;4947292;28;20039;-66
2023/05/22 00:23:09;;;;;;;8.13;3.80;;;;;;;17.19;56.84;101161.53;4964320;28;20047;-66
2023/05/22 00:25:36;;;;;;;10.27;4.03;;;;;;;17.11;56.96;101156.22;4964137;28;20059;-67
2023/05/22 00:28:03;;;;;;;6.13;3.70;;;;;;;17.02;57.29;101150.09;4964781;29;20050;-67
2023/05/22 00:30:30;;;;;;;7.10;3.92;;;;;;;16.98;57.47;101156.94;4979465;28;20043;-67
2023/05/22 00:32:57;;;;;;;12.02;4.57;;;;;;;17.01;57.22;101148.41;4985320;28;20054;-68
2023/05/22 00:35:24;;;;;;;8.85;3.88;;;;;;;16.99;57.27;101145.06;4964682;28;20117;-68
2023/05/22 00:37:50;;;;;;;6.43;3.80;;;;;;;16.81;57.50;101155.47;4964942;28;20134;-67
2023/05/22 00:40:17;;;;;;;9.05;3.80;;;;;;;16.97;57.56;101144.41;4964597;28;20050;-67
2023/05/22 00:42:43;;;;;;;6.75;3.80;;;;;;;16.80;57.69;101145.69;4964912;28;20075;-67
2023/05/22 00:45:10;;;;;;;6.68;3.78;;;;;;;16.99;57.62;101139.66;4964311;28;20051;-67
2023/05/22 00:47:37;;;;;;;7.32;3.45;;;;;;;16.54;58.42;101143.47;4964779;28;20047;-67
2023/05/22 00:50:05;;;;;;;7.82;3.50;;;;;;;16.58;58.38;101147.50;4947429;28;20053;-67
2023/05/22 00:52:36;;;;;;;7.20;3.75;;;;;;;16.69;57.99;101140.75;4963617;28;20126;-67
2023/05/22 00:55:03;;;;;;;10.70;4.15;;;;;;;16.77;57.92;101146.06;4964055;28;20058;-67
2023/05/22 00:57:32;;;;;;;7.63;3.70;;;;;;;16.71;57.73;101138.69;4964000;28;20106;-67
2023/05/22 01:00:01;;;;;;;6.75;3.72;;;;;;;16.71;57.76;101135.97;4964050;28;20122;-70
2023/05/22 01:02:31;;;;;;;9.75;3.78;;;;;;;16.61;58.07;101142.56;4965099;28;20043;-67
2023/05/22 01:04:58;;;;;;;7.60;3.72;;;;;;;16.52;58.35;101132.84;4979566;28;20082;-67
2023/05/22 01:07:25;;;;;;;14.70;3.35;;;;;;;16.46;58.57;101138.97;4983344;28;20093;-67
2023/05/22 01:09:51;;;;;;;7.15;3.28;;;;;;;16.38;58.85;101136.38;4983119;28;20093;-67
2023/05/22 01:12:33;;;;;;;4.75;3.55;;;;;;;16.43;58.41;101136.66;4982711;28;20059;-67
2023/05/22 01:15:06;;;;;;;6.07;3.45;;;;;;;16.34;58.80;101135.09;4983973;28;20070;-67
2023/05/22 01:17:46;;;;;;;9.15;3.53;;;;;;;16.42;58.76;101126.84;4983848;28;20117;-66
2023/05/22 01:20:23;;;;;;;6.70;3.70;;;;;;;16.35;58.90;101134.06;4986640;28;20065;-66
2023/05/22 01:22:57;;;;;;;5.03;3.63;;;;;;;16.38;58.64;101130.97;4987899;28;20047;-66
2023/05/22 01:26:01;;;;;;;10.25;3.58;;;;;;;16.19;59.15;101127.81;4987838;28;20051;-68
2023/05/22 01:28:46;;;;;;;6.65;3.03;;;;;;;16.17;59.32;101124.47;4982338;28;20078;-68
2023/05/22 01:31:18;;;;;;;5.68;3.08;;;;;;;16.27;59.09;101126.88;4946051;29;20052;-66
2023/05/22 01:33:45;;;;;;;;;;;;;;;16.14;59.30;101134.81;4950726;29;20562;-66
2023/05/22 01:36:18;;;;;;;12.63;4.43;;;;;;;16.12;59.26;101136.84;4947025;28;19953;-66
2023/05/22 01:38:46;;;;;;;8.32;3.58;;;;;;;16.18;59.25;101136.13;4987234;28;20050;-66
2023/05/22 01:41:13;;;;;;;6.47;3.38;;;;;;;16.19;59.39;101124.25;4987476;28;20050;-66
2023/05/22 01:43:40;;;;;;;9.52;3.83;;;;;;;16.21;59.28;101129.50;4988022;28;20054;-67
2023/05/22 01:46:07;;;;;;;8.50;4.10;;;;;;;16.11;59.23;101125.19;4988019;28;20400;-66
2023/05/22 01:48:34;;;;;;;5.43;3.40;;;;;;;16.06;59.60;101127.63;4988368;28;20046;-66
2023/05/22 01:51:16;;;;;;;8.35;3.78;;;;;;;15.77;60.14;101133.00;4987855;28;20468;-66
2023/05/22 01:53:50;;;;;;;12.77;4.20;;;;;;;15.93;59.93;101133.69;4987852;28;20105;-66
2023/05/22 01:56:42;;;;;;;6.43;3.80;;;;;;;16.03;59.75;101135.28;4987753;28;20546;-67
2023/05/22 01:59:38;;;;;;;8.73;3.88;;;;;;;16.03;59.44;101128.00;4977081;28;20043;-67
2023/05/22 02:02:09;;;;;;;9.98;3.95;;;;;;;15.86;59.75;101127.34;4985778;28;20072;-66
2023/05/22 02:04:38;;;;;;;7.38;3.50;;;;;;;15.99;59.63;101139.41;4986344;28;20109;-67
2023/05/22 02:07:05;;;;;;;5.53;3.63;;;;;;;15.66;60.40;101131.59;4987823;28;20494;-66
2023/05/22 02:09:33;;;;;;;10.93;3.45;;;;;;;15.47;61.43;101127.53;4986848;28;20046;-67
2023/05/22 02:12:01;;;;;;;9.02;3.70;;;;;;;15.57;61.70;101125.41;4986439;28;20043;-66
2023/05/22 02:14:29;;;;;;;8.13;3.75;;;;;;;15.63;61.50;101126.56;4988058;28;20047;-67
2023/05/22 02:16:55;;;;;;;9.65;4.43;;;;;;;15.52;62.06;101129.69;4986974;28;20047;-67
2023/05/22 02:19:22;;;;;;;16.65;3.97;;;;;;;15.40;62.82;101132.00;4986968;28;20121;-67
2023/05/22 02:21:49;;;;;;;8.48;4.03;;;;;;;15.46;62.79;101128.53;4987067;28;20062;-67
2023/05/22 02:24:15;;;;;;;5.90;3.50;;;;;;;15.52;62.47;101130.50;4987255;28;20517;-67
2023/05/22 02:26:42;;;;;;;5.13;3.75;;;;;;;15.48;62.65;101132.75;4987667;28;20046;-67
2023/05/22 02:29:08;;;;;;;6.35;3.65;;;;;;;15.36;62.87;101131.50;4986888;28;20046;-65
2023/05/22 02:31:35;;;;;;;6.68;3.80;;;;;;;15.19;63.64;101132.66;4987035;28;20047;-65
2023/05/22 02:34:04;;;;;;;5.63;3.75;;;;;;;15.32;63.42;101123.94;4986004;28;20062;-66
2023/05/22 02:36:31;;;;;;;6.78;3.70;;;;;;;15.24;63.33;101127.53;4986674;28;20047;-66
2023/05/22 02:38:58;;;;;;;11.40;4.65;;;;;;;15.17;63.65;101124.72;4985737;28;20047;-66
2023/05/22 02:41:24;;;;;;;7.35;3.85;;;;;;;15.28;63.44;101126.16;4978863;28;20046;-66
2023/05/22 02:43:51;;;;;;;6.13;3.47;;;;;;;15.20;63.37;101132.47;4986521;28;20054;-66
2023/05/22 02:46:18;;;;;;;9.75;3.80;;;;;;;15.29;63.48;101127.81;4986591;28;20069;-66
2023/05/22 02:48:44;;;;;;;12.80;3.60;;;;;;;15.18;63.37;101128.25;4986976;28;20039;-66
2023/05/22 02:51:11;;;;;;;11.80;4.20;;;;;;;15.34;63.23;101130.84;4987574;28;20046;-67
2023/05/22 02:53:39;;;;;;;8.35;3.65;;;;;;;15.33;63.03;101129.16;4987224;28;20415;-66
2023/05/22 02:56:11;;;;;;;9.50;3.83;;;;;;;15.16;63.32;101130.31;4975621;28;20047;-67
2023/05/22 02:58:38;;;;;;;7.47;3.60;;;;;;;15.14;63.63;101126.94;4967559;28;20102;-66
2023/05/22 03:01:05;;;;;;;7.35;3.80;;;;;;;14.90;64.88;101119.84;4966650;28;20079;-67
2023/05/22 03:03:32;;;;;;;8.90;3.95;;;;;;;15.38;63.18;101113.22;4966423;28;20051;-68
2023/05/22 03:06:00;;;;;;;5.38;3.55;;;;;;;15.02;64.24;101118.44;4966358;28;20051;-69
2023/05/22 03:08:27;;;;;;;6.78;4.10;;;;;;;14.96;64.26;101113.75;4962542;28;20052;-66
2023/05/22 03:10:55;;;;;;;7.82;3.92;;;;;;;15.01;65.20;101112.16;4968267;29;20110;-66
2023/05/22 03:13:22;;;;;;;14.15;3.80;;;;;;;15.07;64.92;101112.47;4967737;29;20121;-66
2023/05/22 03:15:48;;;;;;;9.75;4.05;;;;;;;14.84;66.47;101115.16;4966952;28;20047;-66
2023/05/22 03:18:16;;;;;;;11.50;4.25;;;;;;;14.98;65.85;101104.44;4968096;29;20518;-66
2023/05/22 03:20:42;;;;;;;6.22;3.65;;;;;;;15.09;65.55;101097.78;4966393;28;20075;-66
2023/05/22 03:23:10;;;;;;;9.35;3.67;;;;;;;14.86;66.55;101099.63;4967785;28;20047;-66
2023/05/22 03:25:37;;;;;;;7.70;3.42;;;;;;;14.93;66.70;101106.81;4966432;29;20047;-66
2023/05/22 03:28:03;;;;;;;7.25;3.65;;;;;;;15.00;66.32;101099.69;4968460;28;20423;-66
2023/05/22 03:30:30;;;;;;;7.72;4.03;;;;;;;14.86;66.91;101099.63;4967900;29;20053;-67
2023/05/22 03:32:56;;;;;;;6.53;3.83;;;;;;;14.73;68.09;101103.75;4968572;29;20554;-66
2023/05/22 03:35:24;;;;;;;9.35;4.43;;;;;;;14.86;68.02;101097.75;4967467;29;20051;-67
2023/05/22 03:37:50;;;;;;;9.15;4.10;;;;;;;14.64;69.43;101104.78;4966881;29;20046;-66
2023/05/22 03:40:17;;;;;;;9.27;3.80;;;;;;;14.86;68.62;101107.72;4966855;28;20066;-66
2023/05/22 03:42:43;;;;;;;6.70;4.03;;;;;;;14.76;69.68;101107.94;4964972;29;20098;-66
2023/05/22 03:45:10;;;;;;;9.90;4.28;;;;;;;14.81;69.62;101102.88;4966043;29;20051;-66
2023/05/22 03:47:37;;;;;;;7.75;3.72;;;;;;;14.88;69.11;101105.69;4966206;29;20055;-67
2023/05/22 03:50:04;;;;;;;8.85;4.18;;;;;;;14.54;71.60;101106.88;4966634;29;20051;-66
2023/05/22 03:52:30;;;;;;;7.18;3.88;;;;;;;14.58;72.57;101110.91;4966005;29;20043;-67
2023/05/22 03:54:57;;;;;;;7.10;4.15;;;;;;;14.64;71.54;101102.09;4966168;29;20078;-66
2023/05/22 03:57:23;;;;;;;7.07;4.13;;;;;;;14.70;71.31;101098.69;4964847;29;20137;-67
2023/05/22 03:59:50;;;;;;;9.68;4.13;;;;;;;14.73;71.41;101101.03;4948532;29;20046;-65
2023/05/22 04:02:16;;;;;;;17.40;4.78;;;;;;;14.84;71.79;101107.06;4965207;29;20051;-65
2023/05/22 04:04:46;;;;;;;10.60;3.83;;;;;;;14.83;71.85;101099.97;4965307;29;20047;-65
2023/05/22 04:07:12;;;;;;;8.32;3.85;;;;;;;14.75;72.26;101090.91;4965370;29;20075;-65
2023/05/22 04:09:40;;;;;;;12.02;4.50;;;;;;;14.54;73.49;101098.78;4970259;28;20043;-66
2023/05/22 04:12:07;;;;;;;10.15;4.00;;;;;;;14.58;73.62;101091.16;4964841;28;20043;-66
2023/05/22 04:14:33;;;;;;;8.88;4.20;;;;;;;14.70;73.38;101098.69;4964095;29;20079;-66
2023/05/22 04:17:00;;;;;;;10.48;5.10;;;;;;;14.66;74.38;101091.09;4963718;29;20047;-67
2023/05/22 04:19:26;;;;;;;11.25;4.72;;;;;;;14.84;73.59;101099.78;4964127;29;20078;-66
2023/05/22 04:21:53;;;;;;;9.30;4.25;;;;;;;15.06;72.24;101100.00;4962699;28;20080;-66
2023/05/22 04:24:21;;;;;;;10.73;4.25;;;;;;;14.59;75.28;101087.44;4963568;29;20055;-66
2023/05/22 04:26:48;;;;;;;6.50;4.20;;;;;;;14.57;75.37;101094.88;4964375;29;20047;-66
2023/05/22 04:29:15;;;;;;;9.43;4.70;;;;;;;14.81;75.21;101102.00;4951991;28;20415;-66
2023/05/22 04:31:42;;;;;;;9.30;4.53;;;;;;;14.98;74.92;101103.56;4983085;28;20073;-66
2023/05/22 04:34:14;;;;;;;8.90;4.00;;;;;;;14.91;74.39;101097.22;4983743;28;20051;-66
2023/05/22 04:36:40;;;;;;;11.40;4.40;;;;;;;14.84;75.27;101098.94;4983347;28;20047;-66
2023/05/22 04:39:07;;;;;;;9.52;4.43;;;;;;;14.90;75.05;101098.25;4983219;28;20490;-66
2023/05/22 04:41:33;;;;;;;16.73;5.13;;;;;;;14.89;75.73;101096.56;4983731;28;20050;-66
2023/05/22 04:44:02;;;;;;;9.93;3.97;;;;;;;15.16;74.65;101103.28;4983471;28;20050;-66
2023/05/22 04:46:29;;;;;;;15.75;4.25;;;;;;;15.07;75.81;101102.50;4984056;28;20495;-67
2023/05/22 04:49:00;;;;;;;11.98;4.40;;;;;;;14.97;75.87;101101.91;4982852;28;20046;-66
2023/05/22 04:51:29;;;;;;;13.38;4.50;;;;;;;14.89;77.14;101096.56;4982806;28;20046;-66
2023/05/22 04:53:57;;;;;;;10.35;4.35;;;;;;;14.87;76.95;101095.88;4983241;28;20070;-66
2023/05/22 04:56:24;;;;;;;6.25;3.70;;;;;;;14.89;77.54;101102.81;4982390;28;20047;-66
2023/05/22 04:59:03;;;;;;;10.20;4.20;;;;;;;14.96;78.25;101097.53;4981423;28;20043;-67
2023/05/22 05:01:30;;;;;;;12.25;4.50;;;;;;;14.97;78.02;101096.50;4981005;28;20050;-70
2023/05/22 05:03:59;;;;;;;16.55;4.72;;;;;;;15.03;77.83;101093.09;4982210;28;20111;-68
2023/05/22 05:06:26;;;;;;;7.57;4.63;;;;;;;15.11;78.11;101098.41;4981374;28;20419;-66
2023/05/22 05:08:52;;;;;;;17.67;4.78;;;;;;;15.16;78.69;101092.47;4981942;28;20077;-67
2023/05/22 05:11:20;;;;;;;9.77;4.75;;;;;;;14.79;80.75;101090.56;4980917;28;20047;-65
2023/05/22 05:13:47;;;;;;;17.88;4.20;;;;;;;14.84;80.75;101090.84;4980980;28;20105;-68
2023/05/22 05:16:13;;;;;;;9.02;4.25;;;;;;;14.84;82.63;101090.84;4981510;28;20121;-66
2023/05/22 05:18:40;;;;;;;9.43;4.40;;;;;;;14.88;81.83;101090.31;4979575;28;20051;-65
2023/05/22 05:21:06;;;;;;;11.55;4.50;;;;;;;14.81;82.98;101086.66;4980093;28;20057;-65
2023/05/22 05:23:33;;;;;;;16.95;4.85;;;;;;;15.04;83.09;101086.66;4980492;28;20106;-65
2023/05/22 05:26:00;;;;;;;16.27;4.70;;;;;;;14.83;84.09;101092.72;4980307;28;20046;-70
2023/05/22 05:28:26;;;;;;;13.43;4.63;;;;;;;15.03;83.43;101092.25;4981087;28;20050;-65
2023/05/22 05:30:53;;;;;;;9.45;4.32;;;;;;;14.83;85.07;101089.16;4980592;28;20046;-65
2023/05/22 05:33:19;;;;;;;16.55;5.38;;;;;;;15.02;84.12;101096.81;4980687;28;20054;-65
2023/05/22 05:35:49;;;;;;;15.68;4.43;;;;;;;14.92;85.98;101093.50;4980252;28;20067;-65
2023/05/22 05:38:16;;;;;;;16.15;4.82;;;;;;;14.80;86.09;101098.47;4981021;28;20051;-66
2023/05/22 05:40:43;;;;;;;7.53;4.75;;;;;;;14.90;85.55;101100.94;4980465;28;20047;-65
2023/05/22 05:43:12;;;;;;;16.83;4.60;;;;;;;14.86;86.94;101096.91;4980685;28;20101;-65
2023/05/22 05:45:42;;;;;;;10.45;4.93;;;;;;;14.96;87.17;101102.94;4979887;28;20039;-65
2023/05/22 05:48:10;;;;;;;12.18;4.75;;;;;;;15.08;86.20;101103.34;4980785;28;20200;-65
2023/05/22 05:50:37;;;;;;;8.68;4.63;;;;;;;15.03;86.79;101100.34;4980352;28;20046;-65
2023/05/22 05:53:04;;;;;;;10.70;5.13;;;;;;;14.97;88.45;101107.31;4979722;28;20118;-65
2023/05/22 05:55:31;;;;;;;12.68;5.32;;;;;;;15.01;87.98;101103.22;4980025;28;20051;-66
2023/05/22 05:58:00;;;;;;;10.15;4.28;;;;;;;14.99;87.63;101103.41;4980290;28;20047;-65
2023/05/22 06:00:26;;;;;;;7.63;4.70;;;;;;;14.86;89.33;101107.72;4980120;28;20049;-65
2023/05/22 06:02:53;;;;;;;10.90;4.85;;;;;;;15.27;86.63;101105.56;4980579;28;20078;-67
2023/05/22 06:05:21;;;;;;;18.92;4.93;;;;;;;15.17;87.27;101103.09;4981632;28;20051;-66
2023/05/22 06:07:48;;;;;;;13.02;4.65;;;;;;;15.22;88.81;101102.53;4983667;28;20093;-64
2023/05/22 06:10:15;;;;;;;10.25;5.07;;;;;;;15.34;88.05;101105.69;4983172;28;20043;-68
2023/05/22 06:12:41;;;;;;;10.90;4.85;;;;;;;15.36;87.18;101109.88;4957181;28;20468;-70
2023/05/22 06:15:08;;;;;;;12.18;5.28;;;;;;;15.27;86.79;101100.16;4974661;28;20078;-68
2023/05/22 06:17:36;;;;;;;7.72;4.45;;;;;;;15.70;86.13;101097.75;4974308;28;20125;-70
2023/05/22 06:20:05;;;;;;;16.92;4.93;;;;;;;15.45;87.06;101099.81;4974208;28;20491;-68
2023/05/22 06:22:32;;;;;;;10.90;4.82;;;;;;;15.32;89.17;101102.31;4974148;28;20042;-69
2023/05/22 06:24:58;;;;;;;15.52;5.30;;;;;;;15.44;88.55;101090.88;4974886;28;20479;-69
2023/05/22 06:27:26;;;;;;;13.73;4.70;;;;;;;15.62;89.44;101095.94;4974605;28;20061;-69
2023/05/22 06:29:53;;;;;;;18.70;4.18;;;;;;;15.64;88.57;101087.66;4964013;28;20043;-69
2023/05/22 06:32:20;;;;;;;15.43;5.15;;;;;;;15.73;86.55;101091.97;4954650;28;20079;-68
2023/05/22 06:34:47;;;;;;;12.55;5.13;;;;;;;15.68;86.59;101089.00;4954921;29;20071;-68
2023/05/22 06:37:14;;;;;;;9.45;4.65;;;;;;;15.97;84.52;101084.63;4955014;28;20043;-68
2023/05/22 06:39:41;;;;;;;13.32;5.65;;;;;;;15.93;84.73;101086.84;4955049;28;20047;-69
2023/05/22 06:42:07;;;;;;;14.18;5.15;;;;;;;16.10;83.30;101091.03;4955024;28;20507;-69
2023/05/22 06:44:34;;;;;;;9.95;4.95;;;;;;;16.03;84.36;101090.13;4954205;29;20086;-69
2023/05/22 06:47:00;;;;;;;16.67;5.13;;;;;;;16.26;83.04;101094.56;4954353;28;20047;-70
2023/05/22 06:49:27;;;;;;;11.88;5.50;;;;;;;16.37;82.67;101085.97;4955229;28;20518;-68
2023/05/22 06:51:53;;;;;;;15.05;4.93;;;;;;;16.41;80.40;101092.69;4954400;29;20098;-68
2023/05/22 06:54:20;;;;;;;13.52;4.53;;;;;;;16.58;81.35;101099.59;4954460;28;20051;-68
2023/05/22 06:56:46;;;;;;;14.50;5.28;;;;;;;16.27;83.02;101090.84;4954709;28;20043;-68
2023/05/22 06:59:13;;;;;;;10.80;4.93;;;;;;;16.44;81.53;101089.59;4954706;28;20071;-68
2023/05/22 07:01:40;;;;;;;17.60;5.15;;;;;;;16.43;81.64;101088.75;4954703;29;20465;-68
2023/05/22 07:04:07;;;;;;;16.27;5.03;;;;;;;16.54;80.34;101084.75;4954816;28;20047;-69
2023/05/22 07:06:37;;;;;;;25.33;5.45;;;;;;;16.79;78.82;101079.81;4953530;29;20047;-68
2023/05/22 07:09:05;;;;;;;17.98;4.88;;;;;;;16.81;79.61;101085.88;4954164;28;20043;-68
2023/05/22 07:11:31;;;;;;;18.35;5.82;;;;;;;16.98;77.50;101083.75;4954463;28;20047;-69
2023/05/22 07:13:59;;;;;;;11.45;4.90;;;;;;;17.25;76.56;101087.53;4954707;29;20117;-69
2023/05/22 07:16:26;;;;;;;11.63;5.22;;;;;;;17.38;76.23;101083.31;4954412;28;20484;-69
2023/05/22 07:18:53;;;;;;;10.93;5.07;;;;;;;17.39;76.48;101082.25;4953721;29;20467;-69
2023/05/22 07:21:22;;;;;;;13.23;5.13;;;;;;;17.69;74.82;101082.91;4953614;28;20051;-69
2023/05/22 07:23:50;;;;;;;11.80;4.85;;;;;;;18.16;72.51;101078.59;4954235;29;20105;-69
2023/05/22 07:26:17;;;;;;;16.25;5.57;;;;;;;18.29;70.56;101086.81;4953895;29;20043;-69
2023/05/22 07:28:44;;;;;;;15.65;4.93;;;;;;;18.10;71.20;101074.81;4953663;29;20443;-69
2023/05/22 07:31:11;;;;;;;14.75;5.63;;;;;;;18.11;68.74;101086.50;4936532;29;20463;-69
2023/05/22 07:33:37;;;;;;;24.50;5.32;;;;;;;18.34;70.03;101081.59;4953564;29;20047;-70
2023/05/22 07:36:05;;;;;;;11.55;4.78;;;;;;;18.05;70.93;101078.09;4953952;29;20047;-68
2023/05/22 07:38:31;;;;;;;15.77;5.40;;;;;;;18.18;70.05;101079.25;4953624;29;20067;-68
2023/05/22 07:40:58;;;;;;;9.68;4.60;;;;;;;18.68;68.00;101079.84;4954435;29;20051;-67
2023/05/22 07:43:24;;;;;;;15.77;5.10;;;;;;;19.25;65.75;101082.03;4953795;29;20051;-68
2023/05/22 07:45:52;;;;;;;12.60;4.55;;;;;;;19.07;66.50;101073.69;4953690;29;20066;-68
2023/05/22 07:48:19;;;;;;;14.85;4.43;;;;;;;19.16;65.14;101080.56;4953325;29;20075;-68
2023/05/22 07:50:46;;;;;;;8.57;4.57;;;;;;;19.02;64.73;101077.00;4953434;29;20051;-69
2023/05/22 07:53:15;;;;;;;10.07;5.50;;;;;;;18.97;65.71;101075.97;4953297;29;20063;-67
2023/05/22 07:55:41;;;;;;;19.75;5.85;;;;;;;19.24;64.67;101074.06;4952994;29;20054;-69
2023/05/22 07:58:09;;;;;;;10.07;4.75;;;;;;;19.42;64.27;101076.19;4953222;29;20125;-69
2023/05/22 08:00:36;;;;;;;22.85;5.25;;;;;;;19.29;64.08;101073.47;4953163;29;20059;-68
2023/05/22 08:03:02;;;;;;;17.38;4.85;;;;;;;19.56;63.13;101063.41;4953595;29;20051;-69
2023/05/22 08:05:29;;;;;;;12.82;4.85;;;;;;;19.32;63.21;101076.59;4953420;28;20380;-69
2023/05/22 08:07:56;;;;;;;17.95;4.90;;;;;;;19.95;61.40;101076.94;4953321;29;20388;-68
2023/05/22 08:10:22;;;;;;;19.67;4.68;;;;;;;20.10;60.81;101075.84;4953224;29;20067;-69
2023/05/22 08:12:49;;;;;;;16.73;4.30;;;;;;;20.86;59.38;101075.91;4953196;29;20081;-69
2023/05/22 08:15:16;;;;;;;13.50;4.63;;;;;;;20.77;57.98;101073.69;4953028;29;20047;-68
2023/05/22 08:17:42;;;;;;;16.58;5.25;;;;;;;21.12;57.71;101069.47;4952475;29;20098;-68
2023/05/22 08:20:10;;;;;;;20.67;4.80;;;;;;;21.92;54.67;101067.91;4952577;28;20055;-68
2023/05/22 08:22:40;;;;;;;11.20;4.30;;;;;;;21.93;54.29;101073.13;4952583;28;20047;-69
2023/05/22 08:25:08;;;;;;;13.40;4.80;;;;;;;22.66;53.45;101071.41;4952610;29;20138;-69
2023/05/22 08:27:34;;;;;;;9.13;4.35;;;;;;;23.12;50.97;101064.38;4951982;28;20102;-69
2023/05/22 08:30:03;;;;;;;14.32;4.70;;;;;;;22.27;50.92;101057.19;4925082;29;20460;-71
2023/05/22 08:32:29;;;;;;;9.35;4.07;;;;;;;22.09;50.18;101061.63;4934313;29;20055;-69
2023/05/22 08:34:58;;;;;;;12.85;4.55;;;;;;;22.43;50.43;101059.28;4933961;29;20076;-69
2023/05/22 08:37:25;;;;;;;8.80;3.65;;;;;;;22.95;48.82;101048.69;4934109;29;20048;-70
2023/05/22 08:39:51;;;;;;;10.95;4.30;;;;;;;22.60;49.03;101056.75;4933914;29;20150;-69
2023/05/22 08:42:18;;;;;;;8.98;3.90;;;;;;;21.72;50.00;101055.28;4933882;29;20464;-69
2023/05/22 08:44:46;;;;;;;11.63;4.28;;;;;;;21.26;50.71;101053.84;4933618;29;20091;-69
2023/05/22 08:47:13;;;;;;;11.48;4.22;;;;;;;21.88;50.44;101053.88;4933731;29;20052;-69
2023/05/22 08:49:41;;;;;;;9.85;4.20;;;;;;;21.93;49.63;101053.19;4933397;29;20047;-68
2023/05/22 08:52:20;;;;;;;13.70;4.55;;;;;;;22.40;48.77;101046.09;4933590;29;20087;-69
2023/05/22 08:54:53;;;;;;;14.32;3.88;;;;;;;22.20;47.26;101034.59;4932692;29;20118;-69
2023/05/22 08:57:20;;;;;;;12.98;3.80;;;;;;;23.65;45.32;101036.94;4932895;29;20067;-69
2023/05/22 08:59:47;;;;;;;5.45;3.50;;;;;;;24.31;44.78;101026.56;4933453;29;20567;-68
2023/05/22 09:02:15;;;;;;;6.47;3.35;;;;;;;24.65;42.15;101027.50;4933215;29;20070;-69
2023/05/22 09:04:42;;;;;;;10.65;3.83;;;;;;;24.98;41.66;101022.28;4933266;29;20401;-69
2023/05/22 09:07:09;;;;;;;11.60;4.05;;;;;;;24.97;42.07;101015.97;4916362;29;20054;-69
2023/05/22 09:09:37;;;;;;;18.83;3.80;;;;;;;23.20;43.85;101018.41;4933082;29;20048;-70
2023/05/22 09:12:08;;;;;;;16.05;4.30;;;;;;;23.15;45.22;101018.25;4932727;29;20111;-69
2023/05/22 09:14:42;;;;;;;14.98;3.75;;;;;;;22.14;46.87;101019.09;4933408;29;20071;-69
2023/05/22 09:17:10;;;;;;;12.00;3.53;;;;;;;22.06;47.89;101023.00;4932956;29;20067;-70
2023/05/22 09:19:42;;;;;;;12.50;3.53;;;;;;;23.16;46.22;101025.41;4933160;29;20052;-71
2023/05/22 09:22:09;;;;;;;7.40;3.90;;;;;;;23.63;45.05;101017.16;4932837;29;20080;-70
2023/05/22 09:24:43;;;;;;;16.73;3.80;;;;;;;24.26;44.21;101012.75;4932889;29;20103;-70
2023/05/22 09:27:10;;;;;;;10.38;3.78;;;;;;;24.05;43.96;101013.41;4933111;29;20052;-71
2023/05/22 09:29:51;;;;;;;10.07;3.75;;;;;;;23.89;43.80;101009.56;4940954;29;20043;-70
2023/05/22 09:32:18;;;;;;;10.20;3.63;;;;;;;23.54;45.21;101013.16;4952509;29;20078;-70
2023/05/22 09:34:45;;;;;;;10.13;3.92;;;;;;;23.13;46.03;101012.19;4952320;29;20134;-71
2023/05/22 09:37:13;;;;;;;11.75;3.92;;;;;;;23.63;44.91;101005.38;4952037;29;20495;-70
2023/05/22 09:39:42;;;;;;;12.10;4.07;;;;;;;22.60;45.58;101006.72;4953729;28;20047;-69
2023/05/22 09:42:13;;;;;;;9.45;3.30;;;;;;;22.11;46.85;101006.72;4956307;29;20047;-69
2023/05/22 09:44:41;;;;;;;11.18;3.63;;;;;;;22.57;45.96;101010.75;4955955;29;20047;-70
2023/05/22 09:47:11;;;;;;;21.05;4.13;;;;;;;23.12;44.89;101007.81;4955952;29;20054;-71
2023/05/22 09:49:42;;;;;;;10.10;3.40;;;;;;;22.91;45.01;101000.94;4955557;29;20428;-71
2023/05/22 09:52:11;;;;;;;8.55;3.15;;;;;;;22.46;45.35;101000.56;4938682;29;20070;-71
2023/05/22 09:54:48;;;;;;;7.20;3.78;;;;;;;23.78;43.73;100996.69;4955858;29;20051;-72
2023/05/22 09:57:19;;;;;;;9.07;3.75;;;;;;;23.23;42.92;100998.75;4955668;29;20047;-69
2023/05/22 09:59:53;;;;;;;11.40;3.58;;;;;;;23.44;42.48;101001.97;4955655;29;20102;-70
2023/05/22 10:02:21;;;;;;;7.53;3.40;;;;;;;23.63;43.21;100997.16;4955640;29;20051;-71
2023/05/22 10:04:52;;;;;;;9.77;3.45;;;;;;;24.21;41.01;100994.28;4955131;29;20074;-71
2023/05/22 10:07:24;;;;;;;8.55;3.38;;;;;;;24.05;40.84;100989.59;4955300;29;20451;-70
2023/05/22 10:10:03;;;;;;;15.70;3.92;;;;;;;23.27;42.50;100999.13;4955304;29;20054;-69
2023/05/22 10:12:32;;;;;;;8.38;3.72;;;;;;;23.12;42.91;100998.72;4955191;29;20051;-69
2023/05/22 10:15:01;;;;;;;9.50;3.42;;;;;;;23.71;42.24;100989.44;4954644;29;20077;-70
2023/05/22 10:17:28;;;;;;;8.13;3.00;;;;;;;24.51;40.36;100990.50;4955074;29;20051;-70
2023/05/22 10:19:56;;;;;;;12.88;3.30;;;;;;;24.52;40.22;100983.09;4955218;29;20039;-70
2023/05/22 10:22:25;;;;;;;8.88;3.38;;;;;;;23.83;41.28;100989.41;4955012;28;20062;-71
2023/05/22 10:24:53;;;;;;;12.07;3.60;;;;;;;24.78;39.96;100981.63;4954889;29;20055;-72
2023/05/22 10:27:20;;;;;;;8.07;2.92;;;;;;;23.96;40.14;100978.19;4955027;29;20546;-70
2023/05/22 10:29:52;;;;;;;8.52;3.47;;;;;;;23.67;40.70;100982.75;4946184;29;20451;-70
2023/05/22 10:32:40;;;;;;;7.57;3.00;;;;;;;23.73;40.58;100979.03;4935481;29;20047;-70
2023/05/22 10:35:12;;;;;;;14.20;3.08;;;;;;;24.51;39.72;100975.94;4935777;29;20052;-71
2023/05/22 10:37:48;;;;;;;7.38;2.88;;;;;;;23.98;39.91;100975.19;4935932;29;20051;-70
2023/05/22 10:40:29;;;;;;;9.18;2.97;;;;;;;23.70;40.80;100965.00;4935598;29;20047;-70
2023/05/22 10:43:01;;;;;;;9.90;3.22;;;;;;;23.98;39.90;100967.78;4935825;29;20039;-70
2023/05/22 10:45:28;;;;;;;11.57;3.50;;;;;;;24.18;39.41;100964.63;4920772;29;20044;-71
2023/05/22 10:48:10;;;;;;;13.73;3.42;;;;;;;24.44;38.82;100956.91;4916748;29;20635;-72
2023/05/22 10:50:38;;;;;;;7.90;3.15;;;;;;;25.06;38.29;100954.13;4935099;29;20044;-71
2023/05/22 10:53:20;;;;;;;12.82;3.03;;;;;;;25.47;36.92;100949.19;4935289;29;20050;-71
2023/05/22 10:55:48;;;;;;;7.38;3.08;;;;;;;25.32;37.58;100951.75;4935577;29;20050;-71
2023/05/22 10:58:23;;;;;;;12.60;3.67;;;;;;;25.03;37.49;100949.13;4935452;29;20475;-70
2023/05/22 11:01:14;;;;;;;9.82;3.38;;;;;;;25.01;37.60;100943.06;4935443;29;20131;-71
2023/05/22 11:03:52;;;;;;;12.60;3.40;;;;;;;24.68;38.27;100941.97;4917929;29;20054;-72
2023/05/22 11:06:38;;;;;;;8.43;3.22;;;;;;;24.46;38.13;100938.28;4935332;29;20103;-71
2023/05/22 11:09:25;;;;;;;9.32;2.92;;;;;;;24.61;37.51;100934.97;4932304;29;20040;-71
2023/05/22 11:12:24;;;;;;;9.88;3.50;;;;;;;24.33;38.34;100928.44;4934930;29;20083;-72
2023/05/22 11:14:57;;;;;;;11.05;3.10;;;;;;;23.76;37.96;100935.84;4935004;29;20067;-71
2023/05/22 11:17:30;;;;;;;5.28;2.60;;;;;;;23.61;38.21;100930.88;4935200;29;20047;-71
2023/05/22 11:20:00;;;;;;;7.63;3.25;;;;;;;23.12;39.24;100939.38;4934911;29;20051;-70
2023/05/22 11:22:30;;;;;;;13.05;3.47;;;;;;;23.14;39.74;100931.75;4934162;29;20048;-72
2023/05/22 11:24:56;;;;;;;9.75;3.00;;;;;;;22.25;40.21;100933.59;4919849;29;20044;-70
2023/05/22 11:27:23;;;;;;;8.45;3.58;;;;;;;22.26;40.79;100927.09;4915875;29;20055;-70
2023/05/22 11:29:50;;;;;;;8.80;3.70;;;;;;;22.25;40.48;100928.97;4934007;29;20051;-71